createdAt,value
2022-07-25T00:01:47.757Z,21.90
2022-07-25T00:04:14.844Z,21.90
2022-07-25T00:06:42.835Z,21.90
2022-07-25T00:09:09.952Z,21.90
2022-07-25T00:11:36.919Z,21.90
2022-07-25T00:14:04.499Z,21.90
2022-07-25T00:16:31.508Z,21.80
2022-07-25T00:18:58.473Z,21.80
2022-07-25T00:21:25.221Z,21.70
2022-07-25T00:23:51.964Z,21.70
2022-07-25T00:26:18.771Z,21.70
2022-07-25T00:28:45.471Z,21.60
2022-07-25T00:31:12.214Z,21.50
2022-07-25T00:33:40.225Z,21.50
2022-07-25T00:36:08.898Z,21.50
2022-07-25T00:38:35.606Z,21.50
2022-07-25T00:41:04.107Z,21.50
2022-07-25T00:43:31.118Z,21.40
2022-07-25T00:45:58.754Z,21.40
2022-07-25T00:48:27.726Z,21.30
2022-07-25T00:50:58.580Z,21.30
2022-07-25T00:53:25.767Z,21.20
2022-07-25T00:55:52.949Z,21.10
2022-07-25T00:58:19.633Z,21.10
2022-07-25T01:00:46.962Z,21.00
2022-07-25T01:03:13.836Z,20.90
2022-07-25T01:05:40.655Z,21.00
2022-07-25T01:08:08.032Z,20.90
2022-07-25T01:10:35.607Z,21.00
2022-07-25T01:13:02.487Z,20.90
2022-07-25T01:15:29.732Z,20.80
2022-07-25T01:17:56.664Z,20.80
2022-07-25T01:20:25.431Z,20.90
2022-07-25T01:22:53.205Z,20.90
2022-07-25T01:25:20.667Z,20.60
2022-07-25T01:27:54.431Z,20.50
2022-07-25T01:30:24.300Z,20.30
2022-07-25T01:32:51.432Z,20.20
2022-07-25T01:35:18.203Z,20.20
2022-07-25T01:37:45.762Z,20.30
2022-07-25T01:40:14.255Z,20.20
2022-07-25T01:42:41.919Z,20.20
2022-07-25T01:45:09.105Z,20.20
2022-07-25T01:47:35.971Z,20.20
2022-07-25T01:50:03.099Z,20.30
2022-07-25T01:52:30.173Z,20.20
2022-07-25T01:54:56.895Z,20.10
2022-07-25T01:57:30.121Z,20.10
2022-07-25T01:59:58.245Z,20.30
2022-07-25T02:02:25.354Z,20.40
2022-07-25T02:04:52.121Z,20.50
2022-07-25T02:07:18.920Z,20.50
2022-07-25T02:09:45.590Z,20.60
2022-07-25T02:12:12.384Z,20.70
2022-07-25T02:14:39.164Z,20.70
2022-07-25T02:17:06.005Z,20.70
2022-07-25T02:19:32.862Z,20.80
2022-07-25T02:22:00.201Z,20.80
2022-07-25T02:24:26.915Z,20.70
2022-07-25T02:26:53.695Z,20.70
2022-07-25T02:29:21.933Z,20.70
2022-07-25T02:31:49.125Z,20.60
2022-07-25T02:34:16.064Z,20.50
2022-07-25T02:36:43.196Z,20.40
2022-07-25T02:39:10.074Z,20.30
2022-07-25T02:41:36.846Z,20.20
2022-07-25T02:44:04.489Z,20.20
2022-07-25T02:46:31.417Z,20.20
2022-07-25T02:48:58.991Z,20.20
2022-07-25T02:51:26.177Z,20.10
2022-07-25T02:53:57.607Z,20.00
2022-07-25T02:56:25.771Z,19.90
2022-07-25T02:58:52.455Z,19.80
2022-07-25T03:01:19.236Z,19.70
2022-07-25T03:03:46.112Z,19.70
2022-07-25T03:06:12.852Z,19.60
2022-07-25T03:08:39.503Z,19.50
2022-07-25T03:11:06.218Z,19.60
2022-07-25T03:13:33.365Z,19.60
2022-07-25T03:16:00.751Z,19.70
2022-07-25T03:18:27.429Z,19.70
2022-07-25T03:20:54.110Z,19.70
2022-07-25T03:23:20.768Z,19.70
2022-07-25T03:25:47.550Z,19.70
2022-07-25T03:28:14.201Z,19.80
2022-07-25T03:30:40.876Z,19.80
2022-07-25T03:33:07.641Z,19.80
2022-07-25T03:35:35.262Z,19.80
2022-07-25T03:38:02.232Z,19.80
2022-07-25T03:40:29.143Z,19.80
2022-07-25T03:42:55.798Z,19.90
2022-07-25T03:45:22.567Z,19.90
2022-07-25T03:47:49.289Z,19.90
2022-07-25T03:50:16.296Z,19.90
2022-07-25T03:52:42.947Z,19.80
2022-07-25T03:55:11.167Z,19.70
2022-07-25T03:57:38.951Z,19.70
2022-07-25T04:00:07.705Z,19.60
2022-07-25T04:02:34.582Z,19.60
2022-07-25T04:05:01.471Z,19.60
2022-07-25T04:07:28.312Z,19.60
2022-07-25T04:09:55.022Z,19.50
2022-07-25T04:12:21.702Z,19.30
2022-07-25T04:14:49.558Z,19.20
2022-07-25T04:17:16.474Z,19.20
2022-07-25T04:19:43.173Z,19.20
2022-07-25T04:22:10.655Z,19.10
2022-07-25T04:24:37.540Z,19.10
2022-07-25T04:27:04.391Z,19.20
2022-07-25T04:29:31.104Z,19.20
2022-07-25T04:31:58.130Z,19.30
2022-07-25T04:34:25.113Z,19.40
2022-07-25T04:36:51.789Z,19.40
2022-07-25T04:39:18.509Z,19.40
2022-07-25T04:41:45.192Z,19.60
2022-07-25T04:44:11.912Z,19.70
2022-07-25T04:46:38.581Z,19.80
2022-07-25T04:49:05.386Z,19.90
2022-07-25T04:51:32.060Z,20.00
2022-07-25T04:53:58.737Z,20.10
2022-07-25T04:56:25.455Z,20.20
2022-07-25T04:58:52.160Z,20.30
2022-07-25T05:01:18.940Z,20.40
2022-07-25T05:03:49.817Z,20.50
2022-07-25T05:06:18.841Z,20.60
2022-07-25T05:08:45.915Z,20.70
2022-07-25T05:11:12.626Z,20.90
2022-07-25T05:13:39.286Z,21.00
2022-07-25T05:16:06.406Z,21.20
2022-07-25T05:18:34.693Z,21.40
2022-07-25T05:21:01.401Z,21.60
2022-07-25T05:23:28.270Z,21.80
2022-07-25T05:25:54.975Z,22.20
2022-07-25T05:28:21.652Z,22.70
2022-07-25T05:30:48.351Z,23.00
2022-07-25T05:33:15.259Z,23.30
2022-07-25T05:35:42.053Z,23.60
2022-07-25T05:38:08.733Z,23.80
2022-07-25T05:40:35.603Z,23.70
2022-07-25T05:43:03.568Z,23.90
2022-07-25T05:45:31.083Z,24.00
2022-07-25T05:47:57.804Z,24.10
2022-07-25T05:50:24.622Z,24.20
2022-07-25T05:52:51.400Z,24.30
2022-07-25T05:55:18.304Z,24.30
2022-07-25T05:57:45.369Z,24.50
2022-07-25T06:00:12.626Z,24.30
2022-07-25T06:02:39.425Z,24.50
2022-07-25T06:05:06.489Z,24.60
2022-07-25T06:07:33.164Z,24.80
2022-07-25T06:09:59.871Z,25.10
2022-07-25T06:12:26.596Z,25.30
2022-07-25T06:14:53.520Z,25.70
2022-07-25T06:17:20.190Z,25.70
2022-07-25T06:19:46.912Z,25.90
2022-07-25T06:22:13.808Z,26.00
2022-07-25T06:24:41.565Z,26.40
2022-07-25T06:27:08.793Z,26.70
2022-07-25T06:29:35.583Z,27.10
2022-07-25T06:32:02.547Z,26.90
2022-07-25T06:34:29.609Z,27.10
2022-07-25T06:36:59.753Z,27.30
2022-07-25T06:39:28.024Z,27.50
2022-07-25T06:41:54.807Z,27.60
2022-07-25T06:44:21.596Z,27.80
2022-07-25T06:46:48.320Z,27.40
2022-07-25T06:49:17.493Z,27.50
2022-07-25T06:51:44.399Z,27.50
2022-07-25T06:54:11.174Z,27.90
2022-07-25T06:56:37.842Z,28.00
2022-07-25T06:59:04.534Z,28.10
2022-07-25T07:01:31.317Z,28.10
2022-07-25T07:03:58.030Z,28.10
2022-07-25T07:06:24.878Z,28.30
2022-07-25T07:08:52.084Z,27.80
2022-07-25T07:11:18.998Z,28.10
2022-07-25T07:13:45.687Z,28.40
2022-07-25T07:16:12.465Z,28.60
2022-07-25T07:18:39.176Z,28.80
2022-07-25T07:21:06.691Z,29.10
2022-07-25T07:23:34.468Z,29.10
2022-07-25T07:26:03.361Z,29.00
2022-07-25T07:28:30.093Z,28.90
2022-07-25T07:31:15.730Z,28.60
2022-07-25T07:33:43.500Z,29.30
2022-07-25T07:36:10.353Z,29.90
2022-07-25T07:38:37.121Z,30.20
2022-07-25T07:41:03.798Z,30.30
2022-07-25T07:43:31.876Z,30.60
2022-07-25T07:46:01.474Z,30.60
2022-07-25T07:48:32.446Z,30.10
2022-07-25T07:51:00.927Z,30.00
2022-07-25T07:53:46.772Z,30.30
2022-07-25T07:56:14.744Z,30.50
2022-07-25T07:58:41.562Z,30.40
2022-07-25T08:01:08.467Z,30.40
2022-07-25T08:03:36.028Z,30.60
2022-07-25T08:06:02.945Z,30.50
2022-07-25T08:08:31.627Z,30.90
2022-07-25T08:10:59.524Z,31.00
2022-07-25T08:13:29.128Z,31.30
2022-07-25T08:15:59.302Z,31.60
2022-07-25T08:18:27.513Z,31.70
2022-07-25T08:20:54.551Z,31.50
2022-07-25T08:23:22.347Z,31.60
2022-07-25T08:25:49.039Z,31.60
2022-07-25T08:28:15.858Z,31.70
2022-07-25T08:30:43.145Z,31.70
2022-07-25T08:33:18.730Z,31.90
2022-07-25T08:35:54.835Z,31.80
2022-07-25T08:38:23.767Z,31.70
2022-07-25T08:40:50.819Z,31.80
2022-07-25T08:43:18.567Z,32.00
2022-07-25T08:45:50.998Z,31.90
2022-07-25T08:48:19.933Z,32.30
2022-07-25T08:50:48.311Z,32.70
2022-07-25T08:53:35.919Z,33.20
2022-07-25T08:56:12.656Z,32.50
2022-07-25T08:58:44.158Z,32.20
2022-07-25T09:01:11.845Z,32.40
2022-07-25T09:03:38.908Z,32.70
2022-07-25T09:06:19.741Z,32.80
2022-07-25T09:08:57.819Z,32.80
2022-07-25T09:11:33.469Z,32.60
2022-07-25T09:14:09.060Z,32.80
2022-07-25T09:16:41.360Z,33.00
2022-07-25T09:19:10.671Z,33.50
2022-07-25T09:21:39.759Z,33.50
2022-07-25T09:24:15.885Z,33.40
2022-07-25T09:26:51.681Z,33.30
2022-07-25T09:29:24.764Z,33.60
2022-07-25T09:31:53.826Z,33.70
2022-07-25T09:34:31.316Z,33.70
2022-07-25T09:36:58.424Z,33.30
2022-07-25T09:39:34.371Z,33.40
2022-07-25T09:42:01.327Z,33.50
2022-07-25T09:44:30.365Z,33.70
2022-07-25T09:46:59.046Z,33.50
2022-07-25T09:49:26.794Z,33.60
2022-07-25T09:51:54.598Z,33.70
2022-07-25T09:54:21.690Z,33.70
2022-07-25T09:56:48.387Z,33.90
2022-07-25T09:59:15.105Z,33.80
2022-07-25T10:01:50.820Z,33.90
2022-07-25T10:04:22.843Z,34.00
2022-07-25T10:07:04.355Z,34.40
2022-07-25T10:09:32.093Z,34.60
2022-07-25T10:12:06.918Z,34.60
2022-07-25T10:14:34.971Z,34.50
2022-07-25T10:17:02.235Z,34.50
2022-07-25T10:19:53.040Z,34.60
2022-07-25T10:22:46.539Z,34.60
2022-07-25T10:25:18.089Z,34.80
2022-07-25T10:27:50.751Z,34.70
2022-07-25T10:30:23.570Z,34.60
2022-07-25T10:32:58.410Z,34.80
2022-07-25T10:35:27.074Z,35.00
2022-07-25T10:37:55.308Z,35.30
2022-07-25T10:40:37.418Z,35.10
2022-07-25T10:43:23.197Z,35.00
2022-07-25T10:45:56.875Z,35.20
2022-07-25T10:48:29.860Z,35.20
2022-07-25T10:51:03.344Z,35.10
2022-07-25T10:53:46.926Z,35.10
2022-07-25T10:56:16.022Z,35.20
2022-07-25T10:58:47.033Z,35.10
2022-07-25T11:01:19.180Z,34.90
2022-07-25T11:03:45.975Z,34.70
2022-07-25T11:06:15.097Z,35.00
2022-07-25T11:08:42.933Z,35.20
2022-07-25T11:11:11.186Z,35.40
2022-07-25T11:13:39.518Z,35.50
2022-07-25T11:16:07.099Z,35.50
2022-07-25T11:18:37.580Z,35.40
2022-07-25T11:21:06.811Z,35.50
2022-07-25T11:23:35.303Z,35.50
2022-07-25T11:26:10.016Z,35.90
2022-07-25T11:28:42.269Z,36.30
2022-07-25T11:31:09.113Z,36.50
2022-07-25T11:33:38.659Z,36.50
2022-07-25T11:36:06.339Z,36.30
2022-07-25T11:38:33.831Z,36.30
2022-07-25T11:41:00.880Z,36.40
2022-07-25T11:43:27.629Z,36.20
2022-07-25T11:46:03.431Z,36.30
2022-07-25T11:48:35.661Z,36.50
2022-07-25T11:51:18.852Z,36.50
2022-07-25T11:53:49.648Z,36.10
2022-07-25T11:59:08.889Z,35.60
2022-07-25T12:01:42.484Z,36.10
2022-07-25T12:04:16.222Z,36.10
2022-07-25T12:06:48.273Z,36.00
2022-07-25T12:09:20.177Z,36.00
2022-07-25T12:11:48.174Z,36.10
2022-07-25T12:14:15.899Z,35.90
2022-07-25T12:16:42.720Z,35.60
2022-07-25T12:19:18.246Z,35.90
2022-07-25T12:21:45.499Z,36.20
2022-07-25T12:24:12.166Z,36.60
2022-07-25T12:26:39.057Z,36.70
2022-07-25T12:29:05.881Z,36.90
2022-07-25T12:31:32.902Z,36.90
2022-07-25T12:33:59.660Z,36.80
2022-07-25T12:36:26.369Z,37.00
2022-07-25T12:38:53.085Z,37.10
2022-07-25T12:41:22.711Z,37.00
2022-07-25T12:43:49.771Z,36.60
2022-07-25T12:46:16.726Z,36.70
2022-07-25T12:48:44.037Z,36.80
2022-07-25T12:51:10.966Z,36.80
2022-07-25T12:53:42.049Z,36.80
2022-07-25T12:56:09.644Z,36.80
2022-07-25T12:58:37.604Z,36.80
2022-07-25T13:01:06.002Z,37.10
2022-07-25T13:03:32.918Z,37.20
2022-07-25T13:05:59.611Z,37.40
2022-07-25T13:08:26.424Z,37.50
2022-07-25T13:10:53.158Z,37.50
2022-07-25T13:13:19.804Z,37.20
2022-07-25T13:15:46.490Z,37.20
2022-07-25T13:18:13.196Z,37.20
2022-07-25T13:20:39.924Z,37.20
2022-07-25T13:23:06.581Z,37.30
2022-07-25T13:25:34.364Z,37.50
2022-07-25T13:28:04.206Z,37.50
2022-07-25T13:30:37.885Z,37.70
2022-07-25T13:33:04.751Z,37.50
2022-07-25T13:35:38.191Z,37.50
2022-07-25T13:38:06.058Z,37.50
2022-07-25T13:40:32.879Z,37.50
2022-07-25T13:42:59.538Z,37.40
2022-07-25T13:45:26.219Z,37.40
2022-07-25T13:48:12.163Z,37.60
2022-07-25T13:50:39.553Z,37.70
2022-07-25T13:53:06.215Z,37.80
2022-07-25T13:55:32.935Z,37.60
2022-07-25T13:57:59.633Z,37.70
2022-07-25T14:00:26.309Z,37.50
2022-07-25T14:02:53.057Z,37.30
2022-07-25T14:05:19.922Z,37.20
2022-07-25T14:07:46.937Z,37.30
2022-07-25T14:10:13.638Z,37.30
2022-07-25T14:12:40.321Z,37.20
2022-07-25T14:15:07.820Z,36.80
2022-07-25T14:17:35.185Z,36.90
2022-07-25T14:20:03.455Z,37.30
2022-07-25T14:22:32.918Z,37.30
2022-07-25T14:24:59.709Z,37.10
2022-07-25T14:27:26.700Z,37.00
2022-07-25T14:29:54.014Z,37.10
2022-07-25T14:32:20.913Z,37.20
2022-07-25T14:34:47.628Z,37.40
2022-07-25T14:37:14.564Z,37.50
2022-07-25T14:39:41.619Z,37.20
2022-07-25T14:42:11.550Z,37.20
2022-07-25T14:44:39.597Z,37.00
2022-07-25T14:47:12.139Z,37.00
2022-07-25T14:49:40.934Z,37.10
2022-07-25T14:52:07.729Z,37.10
2022-07-25T14:54:34.440Z,36.80
2022-07-25T14:57:02.219Z,36.60
2022-07-25T14:59:28.990Z,36.60
2022-07-25T15:01:55.812Z,36.80
2022-07-25T15:04:25.036Z,36.70
2022-07-25T15:06:52.795Z,36.70
2022-07-25T15:09:20.657Z,36.80
2022-07-25T15:11:48.136Z,36.70
2022-07-25T15:14:15.304Z,36.60
2022-07-25T15:16:43.135Z,36.50
2022-07-25T15:19:18.011Z,36.40
2022-07-25T15:21:45.662Z,36.40
2022-07-25T15:24:13.048Z,36.40
2022-07-25T15:26:40.005Z,36.20
2022-07-25T15:29:09.609Z,36.10
2022-07-25T15:31:37.371Z,36.10
2022-07-25T15:34:04.226Z,36.10
2022-07-25T15:36:30.964Z,36.10
2022-07-25T15:38:57.654Z,36.00
2022-07-25T15:41:24.452Z,35.90
2022-07-25T15:43:51.229Z,35.80
2022-07-25T15:46:18.000Z,35.70
2022-07-25T15:48:45.302Z,35.70
2022-07-25T15:51:16.618Z,35.70
2022-07-25T15:53:43.664Z,35.60
2022-07-25T15:56:11.053Z,35.40
2022-07-25T15:58:37.816Z,35.20
2022-07-25T16:01:04.592Z,35.20
2022-07-25T16:03:31.548Z,35.10
2022-07-25T16:05:58.864Z,35.00
2022-07-25T16:08:25.709Z,35.00
2022-07-25T16:10:52.934Z,35.00
2022-07-25T16:13:20.211Z,34.90
2022-07-25T16:15:47.326Z,34.90
2022-07-25T16:18:14.048Z,34.80
2022-07-25T16:20:40.765Z,34.70
2022-07-25T16:23:07.613Z,34.70
2022-07-25T16:25:34.291Z,34.70
2022-07-25T16:28:01.410Z,34.60
2022-07-25T16:30:28.469Z,34.60
2022-07-25T16:32:55.471Z,34.50
2022-07-25T16:35:22.477Z,34.40
2022-07-25T16:37:49.253Z,34.40
2022-07-25T16:40:16.388Z,34.40
2022-07-25T16:42:44.364Z,34.30
2022-07-25T16:45:11.294Z,34.20
2022-07-25T16:47:40.100Z,34.20
2022-07-25T16:50:07.186Z,34.10
2022-07-25T16:52:34.163Z,34.10
2022-07-25T16:55:00.869Z,34.20
2022-07-25T16:57:27.549Z,34.00
2022-07-25T16:59:54.273Z,34.00
2022-07-25T17:02:24.799Z,33.90
2022-07-25T17:04:54.517Z,33.90
2022-07-25T17:07:21.247Z,33.90
2022-07-25T17:09:47.941Z,33.80
2022-07-25T17:12:14.762Z,33.80
2022-07-25T17:14:41.413Z,33.70
2022-07-25T17:17:08.985Z,33.70
2022-07-25T17:19:39.712Z,33.70
2022-07-25T17:22:07.155Z,33.60
2022-07-25T17:24:34.096Z,33.50
2022-07-25T17:27:01.394Z,33.40
2022-07-25T17:29:28.134Z,33.40
2022-07-25T17:31:54.831Z,33.30
2022-07-25T17:34:21.778Z,33.20
2022-07-25T17:36:48.747Z,33.20
2022-07-25T17:39:15.571Z,33.10
2022-07-25T17:41:42.460Z,33.00
2022-07-25T17:44:11.958Z,33.00
2022-07-25T17:46:39.180Z,33.00
2022-07-25T17:49:05.986Z,33.00
2022-07-25T17:51:32.735Z,32.90
2022-07-25T17:53:59.384Z,32.90
2022-07-25T17:56:26.160Z,32.90
2022-07-25T17:58:53.207Z,32.80
2022-07-25T18:01:19.981Z,32.80
2022-07-25T18:03:47.612Z,32.80
2022-07-25T18:06:14.778Z,32.70
2022-07-25T18:08:41.562Z,32.60
2022-07-25T18:11:08.397Z,32.60
2022-07-25T18:13:35.357Z,32.50
2022-07-25T18:16:02.176Z,32.40
2022-07-25T18:18:29.401Z,32.00
2022-07-25T18:20:56.138Z,31.60
2022-07-25T18:23:24.165Z,31.20
2022-07-25T18:25:52.055Z,31.00
2022-07-25T18:28:19.182Z,30.90
2022-07-25T18:30:45.896Z,30.80
2022-07-25T18:33:12.576Z,30.60
2022-07-25T18:35:39.397Z,30.40
2022-07-25T18:38:06.333Z,30.30
2022-07-25T18:40:33.024Z,30.20
2022-07-25T18:42:59.748Z,30.10
2022-07-25T18:45:29.677Z,30.00
2022-07-25T18:47:57.505Z,30.00
2022-07-25T18:50:24.325Z,29.80
2022-07-25T18:52:51.055Z,29.60
2022-07-25T18:55:17.815Z,29.50
2022-07-25T18:57:44.936Z,29.50
2022-07-25T19:00:11.890Z,29.50
2022-07-25T19:02:38.654Z,29.40
2022-07-25T19:05:06.329Z,29.30
2022-07-25T19:07:34.406Z,29.20
2022-07-25T19:10:01.866Z,29.20
2022-07-25T19:12:28.746Z,29.10
2022-07-25T19:14:55.673Z,29.00
2022-07-25T19:17:23.860Z,28.90
2022-07-25T19:19:51.948Z,28.90
2022-07-25T19:22:18.877Z,28.80
2022-07-25T19:24:45.603Z,28.80
2022-07-25T19:27:12.503Z,28.70
2022-07-25T19:29:41.861Z,28.70
2022-07-25T19:32:08.772Z,28.60
2022-07-25T19:34:38.639Z,28.50
2022-07-25T19:37:05.424Z,28.50
2022-07-25T19:39:32.250Z,28.50
2022-07-25T19:41:59.296Z,28.40
2022-07-25T19:44:26.027Z,28.00
2022-07-25T19:46:54.231Z,27.80
2022-07-25T19:49:20.999Z,27.90
2022-07-25T19:51:47.949Z,27.90
2022-07-25T19:54:14.758Z,28.00
2022-07-25T19:56:41.493Z,28.20
2022-07-25T19:59:08.234Z,28.20
2022-07-25T20:01:36.001Z,28.30
2022-07-25T20:04:05.178Z,28.30
2022-07-25T20:06:32.664Z,28.20
2022-07-25T20:08:59.422Z,28.20
2022-07-25T20:11:26.281Z,28.10
2022-07-25T20:13:54.225Z,28.10
2022-07-25T20:16:20.970Z,28.10
2022-07-25T20:18:47.954Z,28.10
2022-07-25T20:21:17.572Z,28.00
2022-07-25T20:23:45.903Z,28.00
2022-07-25T20:26:13.554Z,28.00
2022-07-25T20:28:40.798Z,28.00
2022-07-25T20:31:07.762Z,27.90
2022-07-25T20:33:34.647Z,27.90
2022-07-25T20:36:01.722Z,27.70
2022-07-25T20:38:28.653Z,27.60
2022-07-25T20:40:55.927Z,27.40
2022-07-25T20:43:22.780Z,27.30
2022-07-25T20:45:49.554Z,27.20
2022-07-25T20:48:16.689Z,27.10
2022-07-25T20:50:44.613Z,26.90
2022-07-25T20:53:11.384Z,26.60
2022-07-25T20:55:38.250Z,26.40
2022-07-25T20:58:05.007Z,26.10
2022-07-25T21:00:31.958Z,25.90
2022-07-25T21:02:59.378Z,25.70
2022-07-25T21:05:27.480Z,25.50
2022-07-25T21:07:54.493Z,25.30
2022-07-25T21:10:21.460Z,25.40
2022-07-25T21:12:48.521Z,25.10
2022-07-25T21:15:15.769Z,24.70
2022-07-25T21:17:42.466Z,24.30
2022-07-25T21:20:11.493Z,23.80
2022-07-25T21:22:39.094Z,23.80
2022-07-25T21:25:07.199Z,23.50
2022-07-25T21:27:34.191Z,23.00
2022-07-25T21:30:00.923Z,22.70
2022-07-25T21:32:27.723Z,22.40
2022-07-25T21:34:54.829Z,22.20
2022-07-25T21:37:21.526Z,22.10
2022-07-25T21:39:48.409Z,22.20
2022-07-25T21:42:15.242Z,22.30
2022-07-25T21:44:43.534Z,21.80
2022-07-25T21:47:11.142Z,21.70
2022-07-25T21:49:56.949Z,21.60
2022-07-25T21:52:34.201Z,21.50
2022-07-25T21:55:03.378Z,21.40
2022-07-25T21:57:30.505Z,21.30
2022-07-25T21:59:57.357Z,21.30
2022-07-25T22:02:24.082Z,21.20
2022-07-25T22:04:50.924Z,21.10
2022-07-25T22:07:18.428Z,21.10
2022-07-25T22:09:45.421Z,21.10
2022-07-25T22:12:12.097Z,21.20
2022-07-25T22:14:38.940Z,21.40
2022-07-25T22:17:05.848Z,21.40
2022-07-25T22:19:33.481Z,21.60
2022-07-25T22:22:00.253Z,21.60
2022-07-25T22:24:26.986Z,21.60
2022-07-25T22:26:53.808Z,21.60
2022-07-25T22:29:20.848Z,21.60
2022-07-25T22:31:47.706Z,21.40
2022-07-25T22:34:14.481Z,21.30
2022-07-25T22:36:41.208Z,21.30
2022-07-25T22:39:08.489Z,21.00
2022-07-25T22:41:35.509Z,20.60
2022-07-25T22:44:02.253Z,20.30
2022-07-25T22:46:29.885Z,20.20
2022-07-25T22:48:57.210Z,20.20
2022-07-25T22:51:24.468Z,20.30
2022-07-25T22:53:51.184Z,20.20
2022-07-25T22:56:18.615Z,20.10
2022-07-25T22:58:45.720Z,19.90
2022-07-25T23:01:16.557Z,19.80
2022-07-25T23:03:43.366Z,19.60
2022-07-25T23:06:10.629Z,19.80
2022-07-25T23:08:37.738Z,19.80
2022-07-25T23:11:06.109Z,19.90
2022-07-25T23:13:34.073Z,19.90
2022-07-25T23:16:03.172Z,19.90
2022-07-25T23:18:30.426Z,20.00
2022-07-25T23:20:57.390Z,19.80
2022-07-25T23:23:24.315Z,19.70
2022-07-25T23:25:51.275Z,19.70
2022-07-25T23:28:18.030Z,19.70
2022-07-25T23:30:44.754Z,19.60
2022-07-25T23:33:11.983Z,19.60
2022-07-25T23:35:38.704Z,19.50
2022-07-25T23:38:05.485Z,19.60
2022-07-25T23:40:32.257Z,19.40
2022-07-25T23:42:59.039Z,19.30
2022-07-25T23:45:28.418Z,19.30
2022-07-25T23:47:56.509Z,19.40
2022-07-25T23:50:23.985Z,19.50
2022-07-25T23:52:51.201Z,19.40
2022-07-25T23:55:17.962Z,19.50
2022-07-25T23:57:44.647Z,19.50
